Sveva — IBEU — position and weather

sailwx.info

Track history (hours):
 
Tides and Currents Weather Stations Pressure Air Temp Water Temp Dewpoint Dewpoint Depression Visibility Wind Speed Wind Dir Waves Ship Positions

Sveva

Last reported at 2018-Jan-04 23:42 UTC. Time now 2018-Jan-18 07:42 UTC.
Position S 00°09' W 047°15'.
Warning: this ship's position is 13 days out of date.

Length 136 m; draft 6.5 m.

Type: Ship (hazmat cat B). MMSI: 247359000.

Date/timePositionNaut miles runAvg speedWind from/ knotsBaromVisibWave heightAir tempDewpointWater temp
2018-Jan-04 23:42S 00°09' W 047°15'1 4.9
2018-Jan-04 23:27S 00°09' W 047°17'510.1
2018-Jan-04 23:01S 00°09' W 047°21'5 9.9
2018-Jan-04 22:30S 00°10' W 047°26'510.4
2018-Jan-04 22:01S 00°11' W 047°31'510.2
2018-Jan-04 21:31S 00°11' W 047°36'510.9
2018-Jan-04 21:01S 00°12' W 047°42'611.7
2018-Jan-04 20:30S 00°13' W 047°47'713.1
2018-Jan-04 20:00S 00°15' W 047°54'714.5
2018-Jan-04 19:31S 00°19' W 047°60'714.9
2018-Jan-04 19:00S 00°21' W 048°07'2214.2
2018-Jan-04 17:28S 00°37' W 048°22'612.5
2018-Jan-04 17:00S 00°42' W 048°25'611.4
2018-Jan-04 16:30S 00°47' W 048°28'5 9.8
2018-Jan-04 16:00S 00°52' W 048°29'510.3
2018-Jan-04 15:30S 00°56' W 048°27'5 9.3
2018-Jan-04 15:00S 01°01' W 048°27'4 7.9
2018-Jan-04 14:30S 01°04' W 048°29'2 3.0
2018-Jan-04 13:52S 01°06' W 048°29'0 0.0
2018-Jan-04 13:28S 01°06' W 048°29'0 0.0
2018-Jan-04 12:58S 01°06' W 048°29'0 0.1
2018-Jan-04 12:22S 01°06' W 048°29'0 0.4
2018-Jan-04 11:52S 01°06' W 048°29'0 0.1
2018-Jan-04 11:22S 01°06' W 048°29'0 0.0
2018-Jan-04 10:58S 01°06' W 048°29'0 0.0
2018-Jan-04 10:25S 01°06' W 048°29'0 0.0
2018-Jan-04 09:58S 01°06' W 048°29'0 0.0
2018-Jan-04 09:28S 01°06' W 048°29'0 0.2
2018-Jan-04 08:58S 01°06' W 048°29'0 0.2
2018-Jan-04 08:28S 01°06' W 048°29'0 0.2
2018-Jan-04 07:46S 01°06' W 048°29'0 0.3
2018-Jan-04 07:25S 01°06' W 048°29'0 0.0
2018-Jan-04 06:58S 01°06' W 048°29'0 0.4
2018-Jan-04 06:28S 01°06' W 048°29'0 0.3
2018-Jan-04 05:55S 01°06' W 048°29'0 0.0
2018-Jan-04 05:25S 01°06' W 048°29'0 0.0
2018-Jan-04 04:55S 01°06' W 048°29'0 0.0
2018-Jan-04 04:28S 01°06' W 048°29'0 0.0
2018-Jan-04 04:01S 01°06' W 048°29'0 0.0
2018-Jan-04 03:28S 01°06' W 048°29'0 0.0
2018-Jan-04 02:58S 01°06' W 048°29'0 0.1
2018-Jan-04 02:28S 01°06' W 048°29'0 0.0
2018-Jan-04 01:58S 01°06' W 048°29'0 0.1
2018-Jan-04 01:28S 01°06' W 048°29'0 0.1
2018-Jan-04 00:58S 01°06' W 048°29'0 0.1
2018-Jan-04 00:28S 01°06' W 048°29'0 0.1
2018-Jan-03 23:58S 01°06' W 048°29'0 0.1
2018-Jan-03 23:28S 01°06' W 048°29'0 0.3
2018-Jan-03 22:58S 01°06' W 048°29'0 0.1
2018-Jan-03 22:28S 01°06' W 048°29'0 0.0
2018-Jan-03 21:55S 01°06' W 048°29'0 0.0
2018-Jan-03 21:28S 01°06' W 048°29'0 0.0
2018-Jan-03 20:59S 01°06' W 048°29'0 0.1
2018-Jan-03 20:23S 01°06' W 048°29'0 0.3
2018-Jan-03 19:59S 01°06' W 048°29'0 0.3
2018-Jan-03 19:28S 01°06' W 048°29'0 0.3
2018-Jan-03 18:58S 01°06' W 048°29'0 0.2
2018-Jan-03 18:28S 01°06' W 048°29'0 0.6
2018-Jan-03 17:58S 01°06' W 048°29'0 0.0
2018-Jan-03 17:25S 01°06' W 048°29'0 0.0
2018-Jan-03 16:58S 01°06' W 048°29'0 0.0
2018-Jan-03 16:28S 01°06' W 048°29'0 0.0
2018-Jan-03 15:55S 01°06' W 048°29'0 0.0
2018-Jan-03 15:31S 01°06' W 048°29'0 0.1
2018-Jan-03 14:58S 01°06' W 048°29'0 0.0
2018-Jan-03 14:28S 01°06' W 048°29'0 0.0
2018-Jan-03 14:01S 01°06' W 048°29'0 0.1
2018-Jan-03 13:31S 01°06' W 048°29'0 0.1
2018-Jan-03 13:01S 01°06' W 048°29'0 0.0
2018-Jan-03 12:27S 01°06' W 048°29'0 0.0
2018-Jan-03 11:55S 01°06' W 048°29'0 0.5
2018-Jan-03 11:28S 01°06' W 048°29'0 0.1
2018-Jan-03 10:58S 01°06' W 048°29'0 0.1
2018-Jan-03 10:28S 01°06' W 048°29'0 0.0
2018-Jan-03 09:58S 01°06' W 048°29'0 0.0
2018-Jan-03 09:28S 01°06' W 048°29'0 0.0
2018-Jan-03 08:58S 01°06' W 048°29'0 0.0
2018-Jan-03 08:16S 01°06' W 048°29'0 0.0
2018-Jan-03 07:58S 01°06' W 048°29'0 0.0
2018-Jan-03 07:28S 01°06' W 048°29'0 0.0
2018-Jan-03 06:52S 01°06' W 048°29'0 0.0
2018-Jan-03 06:27S 01°06' W 048°29'0 0.0
2018-Jan-03 05:57S 01°06' W 048°29'0 0.3
2018-Jan-03 05:28S 01°06' W 048°29'0 0.3
2018-Jan-03 05:01S 01°06' W 048°29'0 0.1
2018-Jan-03 04:31S 01°06' W 048°29'0 0.0
2018-Jan-03 04:00S 01°06' W 048°29'0 0.0
2018-Jan-03 03:31S 01°06' W 048°29'0 0.0
2018-Jan-03 03:01S 01°06' W 048°29'0 0.0
2018-Jan-03 02:27S 01°06' W 048°29'0 0.1
2018-Jan-03 02:00S 01°06' W 048°29'0 0.0
2018-Jan-03 01:27S 01°06' W 048°29'0 0.1
2018-Jan-03 01:00S 01°06' W 048°29'0 0.1
2018-Jan-03 00:30S 01°06' W 048°29'0 0.1
2018-Jan-03 00:00S 01°06' W 048°29'0 0.1
2018-Jan-02 23:30S 01°06' W 048°29'0 0.1
2018-Jan-02 23:00S 01°06' W 048°29'0 0.1
2018-Jan-02 22:30S 01°06' W 048°29'0 0.4
2018-Jan-02 22:00S 01°06' W 048°29'0 0.0
2018-Jan-02 21:30S 01°06' W 048°29'0 0.0
2018-Jan-02 21:00S 01°06' W 048°29'0 0.0
2018-Jan-02 20:30S 01°06' W 048°29'0 0.0
2018-Jan-02 20:00S 01°06' W 048°29'0 0.0
2018-Jan-02 19:30S 01°06' W 048°29'0 0.0
2018-Jan-02 18:33S 01°06' W 048°29'0 0.1
2018-Jan-02 18:30S 01°06' W 048°29'0 0.0
2018-Jan-02 17:57S 01°06' W 048°29'0 0.3
2018-Jan-02 17:30S 01°06' W 048°29'0 0.3
2018-Jan-02 17:01S 01°06' W 048°29'0 0.0
2018-Jan-02 16:30S 01°06' W 048°29'0 0.0
2018-Jan-02 16:00S 01°06' W 048°29'0 0.0
2018-Jan-02 15:30S 01°06' W 048°29'0 0.0
2018-Jan-02 15:00S 01°06' W 048°29'0 0.0
2018-Jan-02 14:30S 01°06' W 048°29'0 0.1
2018-Jan-02 14:00S 01°06' W 048°29'0 0.1
2018-Jan-02 13:27S 01°06' W 048°29'0 0.1
2018-Jan-02 13:00S 01°06' W 048°29'0 0.1
2018-Jan-02 12:30S 01°06' W 048°29'0 0.0
2018-Jan-02 12:00S 01°06' W 048°29'0 0.0
2018-Jan-02 11:30S 01°06' W 048°29'0 0.0
2018-Jan-02 11:00S 01°06' W 048°29'0 0.5
2018-Jan-02 10:27S 01°06' W 048°29'0 0.1
2018-Jan-02 10:00S 01°06' W 048°29'0 0.0
2018-Jan-02 09:30S 01°06' W 048°29'0 0.0
2018-Jan-02 08:30S 01°06' W 048°29'0 0.0
2018-Jan-02 07:57S 01°06' W 048°29'0 0.0
2018-Jan-02 07:30S 01°06' W 048°29'0 0.0
2018-Jan-02 06:48S 01°06' W 048°29'0 0.0
2018-Jan-02 06:21S 01°06' W 048°29'0 0.0
2018-Jan-02 05:57S 01°06' W 048°29'0 0.0
2018-Jan-02 05:27S 01°06' W 048°29'0 0.2
2018-Jan-02 04:30S 01°06' W 048°29'0 0.2
2018-Jan-02 04:00S 01°06' W 048°29'0 0.1
2018-Jan-02 03:30S 01°06' W 048°29'0 0.1
2018-Jan-02 03:00S 01°06' W 048°29'0 0.0
2018-Jan-02 02:30S 01°06' W 048°29'0 0.0
2018-Jan-02 02:00S 01°06' W 048°29'0 0.0
2018-Jan-02 01:30S 01°06' W 048°29'0 0.0
2018-Jan-02 01:00S 01°06' W 048°29'0 0.0
2018-Jan-02 00:30S 01°06' W 048°29'0 0.1
2018-Jan-02 00:00S 01°06' W 048°29'0 0.1
2018-Jan-01 23:30S 01°06' W 048°29'0 0.1
2018-Jan-01 23:00S 01°06' W 048°29'0 0.1
2018-Jan-01 22:30S 01°06' W 048°29'0 0.0
2018-Jan-01 22:00S 01°06' W 048°29'0 0.2
2018-Jan-01 21:30S 01°06' W 048°29'0 0.3
2018-Jan-01 21:00S 01°06' W 048°29'0 0.1
2018-Jan-01 20:30S 01°06' W 048°29'0 0.0
2018-Jan-01 20:00S 01°06' W 048°29'0 0.0
2018-Jan-01 19:30S 01°06' W 048°29'0 0.0
2018-Jan-01 19:00S 01°06' W 048°29'0 0.0
2018-Jan-01 17:06S 01°06' W 048°29'0 0.1
2018-Jan-01 15:00S 01°06' W 048°29'0 0.0
2018-Jan-01 14:30S 01°06' W 048°29'0 0.0
2018-Jan-01 14:00S 01°06' W 048°29'0 0.0
2018-Jan-01 13:24S 01°06' W 048°29'0 0.0
2018-Jan-01 13:00S 01°06' W 048°29'0 0.0
2018-Jan-01 12:00S 01°06' W 048°29'0 0.1
2018-Jan-01 11:30S 01°06' W 048°29'0 0.1
2018-Jan-01 11:00S 01°06' W 048°29'0 0.1
2018-Jan-01 10:30S 01°06' W 048°29'0 0.0
2018-Jan-01 10:00S 01°06' W 048°29'0 0.2
2018-Jan-01 09:30S 01°06' W 048°29'0 0.0
2018-Jan-01 08:27S 01°06' W 048°29'0 0.0
2018-Jan-01 08:00S 01°06' W 048°29'0 0.0
2018-Jan-01 07:21S 01°06' W 048°29'0 0.0
2018-Jan-01 06:00S 01°06' W 048°29'0 0.0
2018-Jan-01 04:52S 01°06' W 048°29'0 0.1
2018-Jan-01 03:54S 01°06' W 048°29'0 0.4
2018-Jan-01 03:30S 01°06' W 048°29'0 0.1
2018-Jan-01 03:00S 01°06' W 048°29'0 0.1
2018-Jan-01 02:30S 01°06' W 048°29'0 0.0
2018-Jan-01 01:57S 01°06' W 048°29'0 0.0
2018-Jan-01 01:30S 01°06' W 048°29'0 0.0
2018-Jan-01 00:30S 01°06' W 048°29'0 0.0
2017-Dec-31 14:06S 01°06' W 048°29'0 0.2
2017-Dec-31 14:00S 01°06' W 048°29'0 0.0
2017-Dec-31 13:30S 01°06' W 048°29'0 0.0
2017-Dec-31 13:00S 01°06' W 048°29'0 0.0
2017-Dec-31 12:30S 01°06' W 048°29'0 0.0
2017-Dec-31 12:00S 01°06' W 048°29'0 0.0
2017-Dec-31 11:30S 01°06' W 048°29'0 0.0
2017-Dec-31 11:00S 01°06' W 048°29'0 0.0
2017-Dec-31 10:30S 01°06' W 048°29'0 0.1
2017-Dec-31 10:00S 01°06' W 048°29'0 0.0
2017-Dec-31 09:30S 01°06' W 048°29'0 0.1
2017-Dec-31 09:00S 01°06' W 048°29'0 0.3
2017-Dec-31 08:27S 01°06' W 048°29'0 0.0
2017-Dec-31 08:00S 01°06' W 048°29'0 0.0
2017-Dec-31 07:24S 01°06' W 048°29'0 0.0
2017-Dec-31 06:57S 01°06' W 048°29'0 0.0
2017-Dec-31 06:27S 01°06' W 048°29'0 0.0
2017-Dec-31 06:00S 01°06' W 048°29'0 0.0
2017-Dec-31 05:30S 01°06' W 048°29'0 0.0
2017-Dec-31 04:57S 01°06' W 048°29'0 0.0
2017-Dec-31 04:21S 01°06' W 048°29'0 0.1
2017-Dec-31 04:00S 01°06' W 048°29'0 0.0
2017-Dec-31 03:30S 01°06' W 048°29'0 0.2
2017-Dec-31 02:57S 01°06' W 048°29'0 0.2
2017-Dec-31 02:30S 01°06' W 048°29'0 0.1
2017-Dec-31 02:00S 01°06' W 048°29'0 0.1
2017-Dec-31 01:30S 01°06' W 048°29'0 0.0
2017-Dec-31 01:00S 01°06' W 048°29'0 0.0
2017-Dec-31 00:30S 01°06' W 048°29'0 0.0
2017-Dec-31 00:00S 01°06' W 048°29'0 0.1
2017-Dec-30 23:31S 01°06' W 048°29'0 0.1
2017-Dec-30 23:00S 01°06' W 048°29'0 0.1
2017-Dec-30 22:30S 01°06' W 048°29'0 0.1
2017-Dec-30 22:00S 01°06' W 048°29'0 0.1
2017-Dec-30 21:30S 01°06' W 048°29'0 0.1
2017-Dec-30 21:00S 01°06' W 048°29'0 0.0
2017-Dec-30 20:27S 01°06' W 048°29'0 0.0
2017-Dec-30 20:00S 01°06' W 048°29'0 0.2
2017-Dec-30 19:27S 01°06' W 048°29'0 0.3
2017-Dec-30 19:00S 01°06' W 048°29'0 0.0
2017-Dec-30 18:30S 01°06' W 048°29'0 0.0
2017-Dec-30 18:00S 01°06' W 048°29'0 0.0
2017-Dec-30 17:30S 01°06' W 048°29'0 0.0
2017-Dec-30 17:00S 01°06' W 048°29'0 0.0
2017-Dec-30 16:30S 01°06' W 048°29'0 0.1
2017-Dec-30 16:00S 01°06' W 048°29'0 0.0
2017-Dec-30 15:30S 01°06' W 048°29'0 0.0
2017-Dec-30 14:54S 01°06' W 048°29'0 0.0
2017-Dec-30 14:30S 01°06' W 048°29'0 0.3
2017-Dec-30 13:57S 01°06' W 048°29'0 0.1
2017-Dec-30 13:30S 01°06' W 048°29'0 0.0
2017-Dec-30 13:00S 01°06' W 048°29'0 0.1
2017-Dec-30 12:30S 01°06' W 048°29'0 0.0
2017-Dec-30 12:00S 01°06' W 048°29'0 0.0
2017-Dec-30 09:45S 01°06' W 048°29'0 0.0
2017-Dec-29 20:09S 01°06' W 048°29'0 0.1
2017-Dec-29 20:00S 01°06' W 048°29'0 0.0
2017-Dec-29 19:30S 01°06' W 048°29'0 0.0
2017-Dec-29 19:00S 01°06' W 048°29'0 0.4
2017-Dec-29 18:30S 01°06' W 048°29'0 0.1
2017-Dec-29 18:00S 01°06' W 048°29'0 0.1
2017-Dec-29 17:30S 01°06' W 048°29'0 0.0
2017-Dec-29 17:00S 01°06' W 048°29'0 0.0
2017-Dec-29 16:27S 01°06' W 048°29'0 0.0
2017-Dec-29 16:00S 01°06' W 048°29'0 0.0
2017-Dec-29 15:30S 01°06' W 048°29'0 0.0
2017-Dec-29 15:00S 01°06' W 048°29'0 0.2
2017-Dec-29 14:30S 01°06' W 048°29'0 0.0
2017-Dec-29 13:42S 01°06' W 048°29'0 0.3
2017-Dec-29 13:30S 01°06' W 048°29'0 0.1
2017-Dec-29 12:51S 01°06' W 048°29'0 0.1
2017-Dec-29 12:30S 01°06' W 048°29'0 0.0
2017-Dec-29 12:00S 01°06' W 048°29'0 0.0
2017-Dec-29 11:30S 01°06' W 048°29'0 0.0
2017-Dec-29 11:00S 01°06' W 048°29'0 0.0
2017-Dec-29 10:30S 01°06' W 048°29'0 0.0
2017-Dec-29 10:00S 01°06' W 048°29'0 0.1
2017-Dec-29 09:30S 01°06' W 048°29'0 0.0
2017-Dec-29 09:00S 01°06' W 048°29'0 0.0
2017-Dec-29 08:30S 01°06' W 048°29'0 0.0
2017-Dec-29 08:00S 01°06' W 048°29'0 0.0
2017-Dec-29 07:30S 01°06' W 048°29'0 0.0
2017-Dec-29 07:00S 01°06' W 048°29'0 0.3
2017-Dec-29 06:27S 01°06' W 048°29'0 0.1
2017-Dec-29 06:00S 01°06' W 048°29'0 0.0
2017-Dec-29 05:30S 01°06' W 048°29'0 0.0
2017-Dec-29 05:00S 01°06' W 048°29'0 0.0
2017-Dec-29 04:30S 01°06' W 048°29'0 0.0
2017-Dec-29 04:00S 01°06' W 048°29'0 0.0
2017-Dec-29 03:30S 01°06' W 048°29'0 0.0
2017-Dec-29 03:00S 01°06' W 048°29'0 0.0
2017-Dec-29 02:30S 01°06' W 048°29'0 0.0
2017-Dec-29 02:00S 01°06' W 048°29'0 0.0
2017-Dec-29 01:30S 01°06' W 048°29'0 0.4
2017-Dec-29 01:00S 01°06' W 048°29'0 0.2
2017-Dec-29 00:27S 01°06' W 048°29'0 0.1
2017-Dec-29 00:00S 01°06' W 048°29'0 0.1
2017-Dec-28 23:30S 01°06' W 048°29'0 0.0
2017-Dec-28 23:00S 01°06' W 048°29'0 0.0
2017-Dec-28 22:30S 01°06' W 048°29'0 0.0
2017-Dec-28 22:00S 01°06' W 048°29'0 0.0
2017-Dec-28 21:24S 01°06' W 048°29'0 0.0
2017-Dec-28 21:00S 01°06' W 048°29'0 0.0
2017-Dec-28 20:30S 01°06' W 048°29'0 0.0
2017-Dec-28 20:00S 01°06' W 048°29'0 0.0
2017-Dec-28 19:30S 01°06' W 048°29'0 0.0
2017-Dec-28 19:00S 01°06' W 048°29'0 0.1
2017-Dec-28 18:30S 01°06' W 048°29'0 0.1
2017-Dec-28 18:00S 01°06' W 048°29'0 0.3
2017-Dec-28 17:30S 01°06' W 048°29'0 0.1
2017-Dec-28 17:00S 01°06' W 048°29'0 0.0
2017-Dec-28 16:30S 01°06' W 048°29'0 0.0
2017-Dec-28 16:00S 01°06' W 048°29'0 0.0
2017-Dec-28 15:30S 01°06' W 048°29'0 0.0
2017-Dec-28 15:00S 01°06' W 048°29'0 0.0
2017-Dec-28 14:30S 01°06' W 048°29'0 0.2
2017-Dec-28 14:00S 01°06' W 048°29'0 0.1
2017-Dec-28 11:48S 01°06' W 048°29'0 0.1
2017-Dec-28 11:30S 01°06' W 048°29'0 0.0
2017-Dec-28 10:48S 01°06' W 048°29'0 0.1
2017-Dec-28 10:30S 01°06' W 048°29'0 0.0
2017-Dec-28 10:00S 01°06' W 048°29'0 0.0
2017-Dec-28 09:27S 01°06' W 048°29'0 0.0
2017-Dec-28 09:00S 01°06' W 048°29'0 0.0
2017-Dec-28 08:27S 01°06' W 048°29'0 0.0
2017-Dec-28 08:00S 01°06' W 048°29'0 0.0
2017-Dec-28 07:30S 01°06' W 048°29'0 0.0
2017-Dec-28 07:00S 01°06' W 048°29'0 0.0
2017-Dec-28 06:30S 01°06' W 048°29'0 0.0
2017-Dec-28 06:00S 01°06' W 048°29'0 0.3
2017-Dec-28 05:30S 01°06' W 048°29'0 0.2
2017-Dec-28 05:00S 01°06' W 048°29'0 0.0
2017-Dec-28 01:24S 01°06' W 048°29'0 0.0
2017-Dec-28 00:54S 01°06' W 048°29'0 0.3
2017-Dec-28 00:30S 01°06' W 048°29'0 0.2
2017-Dec-27 23:54S 01°06' W 048°29'0 0.1
2017-Dec-27 23:30S 01°06' W 048°29'0 0.1
2017-Dec-27 23:00S 01°06' W 048°29'0 0.0
2017-Dec-27 22:30S 01°06' W 048°29'0 0.1
2017-Dec-27 22:00S 01°06' W 048°29'0 0.0
2017-Dec-27 21:30S 01°06' W 048°29'0 0.0
2017-Dec-27 21:00S 01°06' W 048°29'0 0.0
2017-Dec-27 20:24S 01°06' W 048°29'0 0.0
2017-Dec-27 20:00S 01°06' W 048°29'0 0.0
2017-Dec-27 19:30S 01°06' W 048°29'0 0.0
2017-Dec-27 19:00S 01°06' W 048°29'0 0.0
2017-Dec-27 18:30S 01°06' W 048°29'0 0.0
2017-Dec-27 18:00S 01°06' W 048°29'0 0.1
2017-Dec-27 17:27S 01°06' W 048°29'1 1.2
2017-Dec-27 17:00S 01°06' W 048°29'5 9.4
2017-Dec-27 16:30S 01°01' W 048°27'611.2
2017-Dec-27 16:00S 00°56' W 048°27'910.7
2017-Dec-27 15:09S 00°46' W 048°28'1311.4
2017-Dec-27 14:03S 00°36' W 048°21'111.4
2017-Dec-27 13:56S 00°34' W 048°21'511.5
2017-Dec-27 13:30S 00°31' W 048°18'611.0
2017-Dec-27 13:00S 00°27' W 048°14'510.5
2017-Dec-27 12:30S 00°23' W 048°10'5 9.9
2017-Dec-27 12:00S 00°21' W 048°05'510.0
2017-Dec-27 11:30S 00°19' W 048°01'510.3
2017-Dec-27 11:00S 00°16' W 047°56'510.2
2017-Dec-27 10:30S 00°14' W 047°52'510.8
2017-Dec-27 10:00S 00°13' W 047°47'611.3
2017-Dec-27 09:30S 00°12' W 047°41'611.6
2017-Dec-27 09:00S 00°11' W 047°35'611.7
2017-Dec-27 08:30S 00°10' W 047°29'  
Track history (hours):
 
Tides and Currents Weather Stations Pressure Air Temp Water Temp Dewpoint Dewpoint Depression Visibility Wind Speed Wind Dir Waves Ship Positions

Sveva

Last reported at 2018-Jan-04 23:42 UTC. Time now 2018-Jan-18 07:42 UTC.
Position S 00°09' W 047°15'.
Warning: this ship's position is 13 days out of date.

Length 136 m; draft 6.5 m.

Type: Ship (hazmat cat B). MMSI: 247359000.

Date/timePositionNaut miles runAvg speedWind from/ knotsBaromVisibWave heightAir tempDewpointWater temp
2018-Jan-04 23:42S 00°09' W 047°15'1 4.9
2018-Jan-04 23:27S 00°09' W 047°17'510.1
2018-Jan-04 23:01S 00°09' W 047°21'5 9.9
2018-Jan-04 22:30S 00°10' W 047°26'510.4
2018-Jan-04 22:01S 00°11' W 047°31'510.2
2018-Jan-04 21:31S 00°11' W 047°36'510.9
2018-Jan-04 21:01S 00°12' W 047°42'611.7
2018-Jan-04 20:30S 00°13' W 047°47'713.1
2018-Jan-04 20:00S 00°15' W 047°54'714.5
2018-Jan-04 19:31S 00°19' W 047°60'714.9
2018-Jan-04 19:00S 00°21' W 048°07'2214.2
2018-Jan-04 17:28S 00°37' W 048°22'612.5
2018-Jan-04 17:00S 00°42' W 048°25'611.4
2018-Jan-04 16:30S 00°47' W 048°28'5 9.8
2018-Jan-04 16:00S 00°52' W 048°29'510.3
2018-Jan-04 15:30S 00°56' W 048°27'5 9.3
2018-Jan-04 15:00S 01°01' W 048°27'4 7.9
2018-Jan-04 14:30S 01°04' W 048°29'2 3.0
2018-Jan-04 13:52S 01°06' W 048°29'0 0.0
2018-Jan-04 13:28S 01°06' W 048°29'0 0.0
2018-Jan-04 12:58S 01°06' W 048°29'0 0.1
2018-Jan-04 12:22S 01°06' W 048°29'0 0.4
2018-Jan-04 11:52S 01°06' W 048°29'0 0.1
2018-Jan-04 11:22S 01°06' W 048°29'0 0.0
2018-Jan-04 10:58S 01°06' W 048°29'0 0.0
2018-Jan-04 10:25S 01°06' W 048°29'0 0.0
2018-Jan-04 09:58S 01°06' W 048°29'0 0.0
2018-Jan-04 09:28S 01°06' W 048°29'0 0.2
2018-Jan-04 08:58S 01°06' W 048°29'0 0.2
2018-Jan-04 08:28S 01°06' W 048°29'0 0.2
2018-Jan-04 07:46S 01°06' W 048°29'0 0.3
2018-Jan-04 07:25S 01°06' W 048°29'0 0.0
2018-Jan-04 06:58S 01°06' W 048°29'0 0.4
2018-Jan-04 06:28S 01°06' W 048°29'0 0.3
2018-Jan-04 05:55S 01°06' W 048°29'0 0.0
2018-Jan-04 05:25S 01°06' W 048°29'0 0.0
2018-Jan-04 04:55S 01°06' W 048°29'0 0.0
2018-Jan-04 04:28S 01°06' W 048°29'0 0.0
2018-Jan-04 04:01S 01°06' W 048°29'0 0.0
2018-Jan-04 03:28S 01°06' W 048°29'0 0.0
2018-Jan-04 02:58S 01°06' W 048°29'0 0.1
2018-Jan-04 02:28S 01°06' W 048°29'0 0.0
2018-Jan-04 01:58S 01°06' W 048°29'0 0.1
2018-Jan-04 01:28S 01°06' W 048°29'0 0.1
2018-Jan-04 00:58S 01°06' W 048°29'0 0.1
2018-Jan-04 00:28S 01°06' W 048°29'0 0.1
2018-Jan-03 23:58S 01°06' W 048°29'0 0.1
2018-Jan-03 23:28S 01°06' W 048°29'0 0.3
2018-Jan-03 22:58S 01°06' W 048°29'0 0.1
2018-Jan-03 22:28S 01°06' W 048°29'0 0.0
2018-Jan-03 21:55S 01°06' W 048°29'0 0.0
2018-Jan-03 21:28S 01°06' W 048°29'0 0.0
2018-Jan-03 20:59S 01°06' W 048°29'0 0.1
2018-Jan-03 20:23S 01°06' W 048°29'0 0.3
2018-Jan-03 19:59S 01°06' W 048°29'0 0.3
2018-Jan-03 19:28S 01°06' W 048°29'0 0.3
2018-Jan-03 18:58S 01°06' W 048°29'0 0.2
2018-Jan-03 18:28S 01°06' W 048°29'0 0.6
2018-Jan-03 17:58S 01°06' W 048°29'0 0.0
2018-Jan-03 17:25S 01°06' W 048°29'0 0.0
2018-Jan-03 16:58S 01°06' W 048°29'0 0.0
2018-Jan-03 16:28S 01°06' W 048°29'0 0.0
2018-Jan-03 15:55S 01°06' W 048°29'0 0.0
2018-Jan-03 15:31S 01°06' W 048°29'0 0.1
2018-Jan-03 14:58S 01°06' W 048°29'0 0.0
2018-Jan-03 14:28S 01°06' W 048°29'0 0.0
2018-Jan-03 14:01S 01°06' W 048°29'0 0.1
2018-Jan-03 13:31S 01°06' W 048°29'0 0.1
2018-Jan-03 13:01S 01°06' W 048°29'0 0.0
2018-Jan-03 12:27S 01°06' W 048°29'0 0.0
2018-Jan-03 11:55S 01°06' W 048°29'0 0.5
2018-Jan-03 11:28S 01°06' W 048°29'0 0.1
2018-Jan-03 10:58S 01°06' W 048°29'0 0.1
2018-Jan-03 10:28S 01°06' W 048°29'0 0.0
2018-Jan-03 09:58S 01°06' W 048°29'0 0.0
2018-Jan-03 09:28S 01°06' W 048°29'0 0.0
2018-Jan-03 08:58S 01°06' W 048°29'0 0.0
2018-Jan-03 08:16S 01°06' W 048°29'0 0.0
2018-Jan-03 07:58S 01°06' W 048°29'0 0.0
2018-Jan-03 07:28S 01°06' W 048°29'0 0.0
2018-Jan-03 06:52S 01°06' W 048°29'0 0.0
2018-Jan-03 06:27S 01°06' W 048°29'0 0.0
2018-Jan-03 05:57S 01°06' W 048°29'0 0.3
2018-Jan-03 05:28S 01°06' W 048°29'0 0.3
2018-Jan-03 05:01S 01°06' W 048°29'0 0.1
2018-Jan-03 04:31S 01°06' W 048°29'0 0.0
2018-Jan-03 04:00S 01°06' W 048°29'0 0.0
2018-Jan-03 03:31S 01°06' W 048°29'0 0.0
2018-Jan-03 03:01S 01°06' W 048°29'0 0.0
2018-Jan-03 02:27S 01°06' W 048°29'0 0.1
2018-Jan-03 02:00S 01°06' W 048°29'0 0.0
2018-Jan-03 01:27S 01°06' W 048°29'0 0.1
2018-Jan-03 01:00S 01°06' W 048°29'0 0.1
2018-Jan-03 00:30S 01°06' W 048°29'0 0.1
2018-Jan-03 00:00S 01°06' W 048°29'0 0.1
2018-Jan-02 23:30S 01°06' W 048°29'0 0.1
2018-Jan-02 23:00S 01°06' W 048°29'0 0.1
2018-Jan-02 22:30S 01°06' W 048°29'0 0.4
2018-Jan-02 22:00S 01°06' W 048°29'0 0.0
2018-Jan-02 21:30S 01°06' W 048°29'0 0.0
2018-Jan-02 21:00S 01°06' W 048°29'0 0.0
2018-Jan-02 20:30S 01°06' W 048°29'0 0.0
2018-Jan-02 20:00S 01°06' W 048°29'0 0.0
2018-Jan-02 19:30S 01°06' W 048°29'0 0.0
2018-Jan-02 18:33S 01°06' W 048°29'0 0.1
2018-Jan-02 18:30S 01°06' W 048°29'0 0.0
2018-Jan-02 17:57S 01°06' W 048°29'0 0.3
2018-Jan-02 17:30S 01°06' W 048°29'0 0.3
2018-Jan-02 17:01S 01°06' W 048°29'0 0.0
2018-Jan-02 16:30S 01°06' W 048°29'0 0.0
2018-Jan-02 16:00S 01°06' W 048°29'0 0.0
2018-Jan-02 15:30S 01°06' W 048°29'0 0.0
2018-Jan-02 15:00S 01°06' W 048°29'0 0.0
2018-Jan-02 14:30S 01°06' W 048°29'0 0.1
2018-Jan-02 14:00S 01°06' W 048°29'0 0.1
2018-Jan-02 13:27S 01°06' W 048°29'0 0.1
2018-Jan-02 13:00S 01°06' W 048°29'0 0.1
2018-Jan-02 12:30S 01°06' W 048°29'0 0.0
2018-Jan-02 12:00S 01°06' W 048°29'0 0.0
2018-Jan-02 11:30S 01°06' W 048°29'0 0.0
2018-Jan-02 11:00S 01°06' W 048°29'0 0.5
2018-Jan-02 10:27S 01°06' W 048°29'0 0.1
2018-Jan-02 10:00S 01°06' W 048°29'0 0.0
2018-Jan-02 09:30S 01°06' W 048°29'0 0.0
2018-Jan-02 08:30S 01°06' W 048°29'0 0.0
2018-Jan-02 07:57S 01°06' W 048°29'0 0.0
2018-Jan-02 07:30S 01°06' W 048°29'0 0.0
2018-Jan-02 06:48S 01°06' W 048°29'0 0.0
2018-Jan-02 06:21S 01°06' W 048°29'0 0.0
2018-Jan-02 05:57S 01°06' W 048°29'0 0.0
2018-Jan-02 05:27S 01°06' W 048°29'0 0.2
2018-Jan-02 04:30S 01°06' W 048°29'0 0.2
2018-Jan-02 04:00S 01°06' W 048°29'0 0.1
2018-Jan-02 03:30S 01°06' W 048°29'0 0.1
2018-Jan-02 03:00S 01°06' W 048°29'0 0.0
2018-Jan-02 02:30S 01°06' W 048°29'0 0.0
2018-Jan-02 02:00S 01°06' W 048°29'0 0.0
2018-Jan-02 01:30S 01°06' W 048°29'0 0.0
2018-Jan-02 01:00S 01°06' W 048°29'0 0.0
2018-Jan-02 00:30S 01°06' W 048°29'0 0.1
2018-Jan-02 00:00S 01°06' W 048°29'0 0.1
2018-Jan-01 23:30S 01°06' W 048°29'0 0.1
2018-Jan-01 23:00S 01°06' W 048°29'0 0.1
2018-Jan-01 22:30S 01°06' W 048°29'0 0.0
2018-Jan-01 22:00S 01°06' W 048°29'0 0.2
2018-Jan-01 21:30S 01°06' W 048°29'0 0.3
2018-Jan-01 21:00S 01°06' W 048°29'0 0.1
2018-Jan-01 20:30S 01°06' W 048°29'0 0.0
2018-Jan-01 20:00S 01°06' W 048°29'0 0.0
2018-Jan-01 19:30S 01°06' W 048°29'0 0.0
2018-Jan-01 19:00S 01°06' W 048°29'0 0.0
2018-Jan-01 17:06S 01°06' W 048°29'0 0.1
2018-Jan-01 15:00S 01°06' W 048°29'0 0.0
2018-Jan-01 14:30S 01°06' W 048°29'0 0.0
2018-Jan-01 14:00S 01°06' W 048°29'0 0.0
2018-Jan-01 13:24S 01°06' W 048°29'0 0.0
2018-Jan-01 13:00S 01°06' W 048°29'0 0.0
2018-Jan-01 12:00S 01°06' W 048°29'0 0.1
2018-Jan-01 11:30S 01°06' W 048°29'0 0.1
2018-Jan-01 11:00S 01°06' W 048°29'0 0.1
2018-Jan-01 10:30S 01°06' W 048°29'0 0.0
2018-Jan-01 10:00S 01°06' W 048°29'0 0.2
2018-Jan-01 09:30S 01°06' W 048°29'0 0.0
2018-Jan-01 08:27S 01°06' W 048°29'0 0.0
2018-Jan-01 08:00S 01°06' W 048°29'0 0.0
2018-Jan-01 07:21S 01°06' W 048°29'0 0.0
2018-Jan-01 06:00S 01°06' W 048°29'0 0.0
2018-Jan-01 04:52S 01°06' W 048°29'0 0.1
2018-Jan-01 03:54S 01°06' W 048°29'0 0.4
2018-Jan-01 03:30S 01°06' W 048°29'0 0.1
2018-Jan-01 03:00S 01°06' W 048°29'0 0.1
2018-Jan-01 02:30S 01°06' W 048°29'0 0.0
2018-Jan-01 01:57S 01°06' W 048°29'0 0.0
2018-Jan-01 01:30S 01°06' W 048°29'0 0.0
2018-Jan-01 00:30S 01°06' W 048°29'0 0.0
2017-Dec-31 14:06S 01°06' W 048°29'0 0.2
2017-Dec-31 14:00S 01°06' W 048°29'0 0.0
2017-Dec-31 13:30S 01°06' W 048°29'0 0.0
2017-Dec-31 13:00S 01°06' W 048°29'0 0.0
2017-Dec-31 12:30S 01°06' W 048°29'0 0.0
2017-Dec-31 12:00S 01°06' W 048°29'0 0.0
2017-Dec-31 11:30S 01°06' W 048°29'0 0.0
2017-Dec-31 11:00S 01°06' W 048°29'0 0.0
2017-Dec-31 10:30S 01°06' W 048°29'0 0.1
2017-Dec-31 10:00S 01°06' W 048°29'0 0.0
2017-Dec-31 09:30S 01°06' W 048°29'0 0.1
2017-Dec-31 09:00S 01°06' W 048°29'0 0.3
2017-Dec-31 08:27S 01°06' W 048°29'0 0.0
2017-Dec-31 08:00S 01°06' W 048°29'0 0.0
2017-Dec-31 07:24S 01°06' W 048°29'0 0.0
2017-Dec-31 06:57S 01°06' W 048°29'0 0.0
2017-Dec-31 06:27S 01°06' W 048°29'0 0.0
2017-Dec-31 06:00S 01°06' W 048°29'0 0.0
2017-Dec-31 05:30S 01°06' W 048°29'0 0.0
2017-Dec-31 04:57S 01°06' W 048°29'0 0.0
2017-Dec-31 04:21S 01°06' W 048°29'0 0.1
2017-Dec-31 04:00S 01°06' W 048°29'0 0.0
2017-Dec-31 03:30S 01°06' W 048°29'0 0.2
2017-Dec-31 02:57S 01°06' W 048°29'0 0.2
2017-Dec-31 02:30S 01°06' W 048°29'0 0.1
2017-Dec-31 02:00S 01°06' W 048°29'0 0.1
2017-Dec-31 01:30S 01°06' W 048°29'0 0.0
2017-Dec-31 01:00S 01°06' W 048°29'0 0.0
2017-Dec-31 00:30S 01°06' W 048°29'0 0.0
2017-Dec-31 00:00S 01°06' W 048°29'0 0.1
2017-Dec-30 23:31S 01°06' W 048°29'0 0.1
2017-Dec-30 23:00S 01°06' W 048°29'0 0.1
2017-Dec-30 22:30S 01°06' W 048°29'0 0.1
2017-Dec-30 22:00S 01°06' W 048°29'0 0.1
2017-Dec-30 21:30S 01°06' W 048°29'0 0.1
2017-Dec-30 21:00S 01°06' W 048°29'0 0.0
2017-Dec-30 20:27S 01°06' W 048°29'0 0.0
2017-Dec-30 20:00S 01°06' W 048°29'0 0.2
2017-Dec-30 19:27S 01°06' W 048°29'0 0.3
2017-Dec-30 19:00S 01°06' W 048°29'0 0.0
2017-Dec-30 18:30S 01°06' W 048°29'0 0.0
2017-Dec-30 18:00S 01°06' W 048°29'0 0.0
2017-Dec-30 17:30S 01°06' W 048°29'0 0.0
2017-Dec-30 17:00S 01°06' W 048°29'0 0.0
2017-Dec-30 16:30S 01°06' W 048°29'0 0.1
2017-Dec-30 16:00S 01°06' W 048°29'0 0.0
2017-Dec-30 15:30S 01°06' W 048°29'0 0.0
2017-Dec-30 14:54S 01°06' W 048°29'0 0.0
2017-Dec-30 14:30S 01°06' W 048°29'0 0.3
2017-Dec-30 13:57S 01°06' W 048°29'0 0.1
2017-Dec-30 13:30S 01°06' W 048°29'0 0.0
2017-Dec-30 13:00S 01°06' W 048°29'0 0.1
2017-Dec-30 12:30S 01°06' W 048°29'0 0.0
2017-Dec-30 12:00S 01°06' W 048°29'0 0.0
2017-Dec-30 09:45S 01°06' W 048°29'0 0.0
2017-Dec-29 20:09S 01°06' W 048°29'0 0.1
2017-Dec-29 20:00S 01°06' W 048°29'0 0.0
2017-Dec-29 19:30S 01°06' W 048°29'0 0.0
2017-Dec-29 19:00S 01°06' W 048°29'0 0.4
2017-Dec-29 18:30S 01°06' W 048°29'0 0.1
2017-Dec-29 18:00S 01°06' W 048°29'0 0.1
2017-Dec-29 17:30S 01°06' W 048°29'0 0.0
2017-Dec-29 17:00S 01°06' W 048°29'0 0.0
2017-Dec-29 16:27S 01°06' W 048°29'0 0.0
2017-Dec-29 16:00S 01°06' W 048°29'0 0.0
2017-Dec-29 15:30S 01°06' W 048°29'0 0.0
2017-Dec-29 15:00S 01°06' W 048°29'0 0.2
2017-Dec-29 14:30S 01°06' W 048°29'0 0.0
2017-Dec-29 13:42S 01°06' W 048°29'0 0.3
2017-Dec-29 13:30S 01°06' W 048°29'0 0.1
2017-Dec-29 12:51S 01°06' W 048°29'0 0.1
2017-Dec-29 12:30S 01°06' W 048°29'0 0.0
2017-Dec-29 12:00S 01°06' W 048°29'0 0.0
2017-Dec-29 11:30S 01°06' W 048°29'0 0.0
2017-Dec-29 11:00S 01°06' W 048°29'0 0.0
2017-Dec-29 10:30S 01°06' W 048°29'0 0.0
2017-Dec-29 10:00S 01°06' W 048°29'0 0.1
2017-Dec-29 09:30S 01°06' W 048°29'0 0.0
2017-Dec-29 09:00S 01°06' W 048°29'0 0.0
2017-Dec-29 08:30S 01°06' W 048°29'0 0.0
2017-Dec-29 08:00S 01°06' W 048°29'0 0.0
2017-Dec-29 07:30S 01°06' W 048°29'0 0.0
2017-Dec-29 07:00S 01°06' W 048°29'0 0.3
2017-Dec-29 06:27S 01°06' W 048°29'0 0.1
2017-Dec-29 06:00S 01°06' W 048°29'0 0.0
2017-Dec-29 05:30S 01°06' W 048°29'0 0.0
2017-Dec-29 05:00S 01°06' W 048°29'0 0.0
2017-Dec-29 04:30S 01°06' W 048°29'0 0.0
2017-Dec-29 04:00S 01°06' W 048°29'0 0.0
2017-Dec-29 03:30S 01°06' W 048°29'0 0.0
2017-Dec-29 03:00S 01°06' W 048°29'0 0.0
2017-Dec-29 02:30S 01°06' W 048°29'0 0.0
2017-Dec-29 02:00S 01°06' W 048°29'0 0.0
2017-Dec-29 01:30S 01°06' W 048°29'0 0.4
2017-Dec-29 01:00S 01°06' W 048°29'0 0.2
2017-Dec-29 00:27S 01°06' W 048°29'0 0.1
2017-Dec-29 00:00S 01°06' W 048°29'0 0.1
2017-Dec-28 23:30S 01°06' W 048°29'0 0.0
2017-Dec-28 23:00S 01°06' W 048°29'0 0.0
2017-Dec-28 22:30S 01°06' W 048°29'0 0.0
2017-Dec-28 22:00S 01°06' W 048°29'0 0.0
2017-Dec-28 21:24S 01°06' W 048°29'0 0.0
2017-Dec-28 21:00S 01°06' W 048°29'0 0.0
2017-Dec-28 20:30S 01°06' W 048°29'0 0.0
2017-Dec-28 20:00S 01°06' W 048°29'0 0.0
2017-Dec-28 19:30S 01°06' W 048°29'0 0.0
2017-Dec-28 19:00S 01°06' W 048°29'0 0.1
2017-Dec-28 18:30S 01°06' W 048°29'0 0.1
2017-Dec-28 18:00S 01°06' W 048°29'0 0.3
2017-Dec-28 17:30S 01°06' W 048°29'0 0.1
2017-Dec-28 17:00S 01°06' W 048°29'0 0.0
2017-Dec-28 16:30S 01°06' W 048°29'0 0.0
2017-Dec-28 16:00S 01°06' W 048°29'0 0.0
2017-Dec-28 15:30S 01°06' W 048°29'0 0.0
2017-Dec-28 15:00S 01°06' W 048°29'0 0.0
2017-Dec-28 14:30S 01°06' W 048°29'0 0.2
2017-Dec-28 14:00S 01°06' W 048°29'0 0.1
2017-Dec-28 11:48S 01°06' W 048°29'0 0.1
2017-Dec-28 11:30S 01°06' W 048°29'0 0.0
2017-Dec-28 10:48S 01°06' W 048°29'0 0.1
2017-Dec-28 10:30S 01°06' W 048°29'0 0.0
2017-Dec-28 10:00S 01°06' W 048°29'0 0.0
2017-Dec-28 09:27S 01°06' W 048°29'0 0.0
2017-Dec-28 09:00S 01°06' W 048°29'0 0.0
2017-Dec-28 08:27S 01°06' W 048°29'0 0.0
2017-Dec-28 08:00S 01°06' W 048°29'0 0.0
2017-Dec-28 07:30S 01°06' W 048°29'0 0.0
2017-Dec-28 07:00S 01°06' W 048°29'0 0.0
2017-Dec-28 06:30S 01°06' W 048°29'0 0.0
2017-Dec-28 06:00S 01°06' W 048°29'0 0.3
2017-Dec-28 05:30S 01°06' W 048°29'0 0.2
2017-Dec-28 05:00S 01°06' W 048°29'0 0.0
2017-Dec-28 01:24S 01°06' W 048°29'0 0.0
2017-Dec-28 00:54S 01°06' W 048°29'0 0.3
2017-Dec-28 00:30S 01°06' W 048°29'0 0.2
2017-Dec-27 23:54S 01°06' W 048°29'0 0.1
2017-Dec-27 23:30S 01°06' W 048°29'0 0.1
2017-Dec-27 23:00S 01°06' W 048°29'0 0.0
2017-Dec-27 22:30S 01°06' W 048°29'0 0.1
2017-Dec-27 22:00S 01°06' W 048°29'0 0.0
2017-Dec-27 21:30S 01°06' W 048°29'0 0.0
2017-Dec-27 21:00S 01°06' W 048°29'0 0.0
2017-Dec-27 20:24S 01°06' W 048°29'0 0.0
2017-Dec-27 20:00S 01°06' W 048°29'0 0.0
2017-Dec-27 19:30S 01°06' W 048°29'0 0.0
2017-Dec-27 19:00S 01°06' W 048°29'0 0.0
2017-Dec-27 18:30S 01°06' W 048°29'0 0.0
2017-Dec-27 18:00S 01°06' W 048°29'0 0.1
2017-Dec-27 17:27S 01°06' W 048°29'1 1.2
2017-Dec-27 17:00S 01°06' W 048°29'5 9.4
2017-Dec-27 16:30S 01°01' W 048°27'611.2
2017-Dec-27 16:00S 00°56' W 048°27'910.7
2017-Dec-27 15:09S 00°46' W 048°28'1311.4
2017-Dec-27 14:03S 00°36' W 048°21'111.4
2017-Dec-27 13:56S 00°34' W 048°21'511.5
2017-Dec-27 13:30S 00°31' W 048°18'611.0
2017-Dec-27 13:00S 00°27' W 048°14'510.5
2017-Dec-27 12:30S 00°23' W 048°10'5 9.9
2017-Dec-27 12:00S 00°21' W 048°05'510.0
2017-Dec-27 11:30S 00°19' W 048°01'510.3
2017-Dec-27 11:00S 00°16' W 047°56'510.2
2017-Dec-27 10:30S 00°14' W 047°52'510.8
2017-Dec-27 10:00S 00°13' W 047°47'611.3
2017-Dec-27 09:30S 00°12' W 047°41'611.6
2017-Dec-27 09:00S 00°11' W 047°35'611.7
2017-Dec-27 08:30S 00°10' W 047°29'  

Dump ship's entire track history